Arca — PDHT — position and weather

sailwx.info

Track history (hours):
 
Tides and Currents Weather Stations Pressure Air Temp Water Temp Dewpoint Dewpoint Depression Visibility Wind Speed Wind Dir Waves Ship Positions

Oceanographic research ship Arca (Netherlands)

Detailed information on ship capabilities available from University of Delaware's Ocean Information Center.

Last reported at 2020-Jan-24 03:28 UTC. Time now 2020-Jan-24 05:31 UTC.
Position N 52°06' E 004°16'.

Length 83 m; draft 5 m.

Type: Law enforcement. MMSI: 244454000.

Date/timePositionNaut miles runAvg speedWind from/ knotsBaromVisibWave heightAir tempDewpointWater temp
2020-Jan-24 03:28N 52°06' E 004°16'0 0.0
2020-Jan-24 02:28N 52°06' E 004°16'0 0.0
2020-Jan-24 00:28N 52°06' E 004°16'0 0.0
2020-Jan-23 23:28N 52°06' E 004°16'0 0.0
2020-Jan-23 21:58N 52°06' E 004°16'0 0.0
2020-Jan-23 16:28N 52°06' E 004°16'3 3.2
2020-Jan-23 15:30N 52°08' E 004°12'2 1.3
2020-Jan-23 14:00N 52°09' E 004°09'2 1.0
2020-Jan-23 12:30N 52°08' E 004°12'1811.7
2020-Jan-23 11:00N 51°59' E 003°47'1611.7
2020-Jan-23 09:37N 51°54' E 003°22'9 2.5
2020-Jan-23 05:53N 52°01' E 003°11'1 3.5
2020-Jan-23 05:30N 52°00' E 003°13'1 0.0
2020-Jan-22 08:28N 52°01' E 003°14'1 0.3
2020-Jan-22 04:00N 51°60' E 003°16'1 0.2
2020-Jan-22 00:00N 52°00' E 003°15'0 0.1
2020-Jan-21 20:30N 51°60' E 003°14'32 4.3
2020-Jan-21 13:00N 52°15' E 004°01'1510.1
2020-Jan-21 11:30N 52°25' E 004°20'1010.1
2020-Jan-21 10:30N 52°33' E 004°28'27 7.5
2020-Jan-21 06:53N 53°00' E 004°36'7 0.5
2020-Jan-20 14:45N 52°53' E 004°34'1612.7
2020-Jan-20 13:30N 52°37' E 004°29'2013.3
2020-Jan-20 12:00N 52°18' E 004°21'1211.5
2020-Jan-20 11:01N 52°08' E 004°12'3 2.0
2020-Jan-20 09:27N 52°06' E 004°16'0 0.0
2020-Jan-20 09:00N 52°06' E 004°16'0 0.0
2020-Jan-20 07:00N 52°06' E 004°16'0 0.0
2020-Jan-20 06:00N 52°06' E 004°16'0 0.0
2020-Jan-20 05:30N 52°06' E 004°16'0 0.0
2020-Jan-20 05:00N 52°06' E 004°16'0 0.0
2020-Jan-20 03:30N 52°06' E 004°16'0 0.0
2020-Jan-20 02:30N 52°06' E 004°16'0 0.0
2020-Jan-20 01:30N 52°06' E 004°16'0 0.0
2020-Jan-20 01:00N 52°06' E 004°16'0 0.0
2020-Jan-19 23:30N 52°06' E 004°16'0 0.0
2020-Jan-19 20:57N 52°06' E 004°16'0 0.0
2020-Jan-19 19:00N 52°06' E 004°16'0 0.0
2020-Jan-19 18:30N 52°06' E 004°16'0 0.0
2020-Jan-19 16:30N 52°06' E 004°16'0 0.0
2020-Jan-19 13:00N 52°06' E 004°16'0 0.0
2020-Jan-19 11:00N 52°06' E 004°16'0 0.0
2020-Jan-19 10:30N 52°06' E 004°16'0 0.0
2020-Jan-19 10:00N 52°06' E 004°16'0 0.0
2020-Jan-19 08:30N 52°06' E 004°16'0 0.0
2020-Jan-19 06:30N 52°06' E 004°16'0 0.0
2020-Jan-19 04:30N 52°06' E 004°16'0 0.0
2020-Jan-19 03:30N 52°06' E 004°16'0 0.0
2020-Jan-19 01:00N 52°06' E 004°16'0 0.0
2020-Jan-19 00:30N 52°06' E 004°16'0 0.0
2020-Jan-18 21:57N 52°06' E 004°16'0 0.0
2020-Jan-18 21:30N 52°06' E 004°16'0 0.0
2020-Jan-18 20:30N 52°06' E 004°16'0 0.0
2020-Jan-18 19:30N 52°06' E 004°16'0 0.0
2020-Jan-18 18:00N 52°06' E 004°16'0 0.0
2020-Jan-18 17:30N 52°06' E 004°16'0 0.0
2020-Jan-18 16:30N 52°06' E 004°16'0 0.0
2020-Jan-18 15:30N 52°06' E 004°16'0 0.0
2020-Jan-18 15:00N 52°06' E 004°16'0 0.0
2020-Jan-18 13:27N 52°06' E 004°16'0 0.0
2020-Jan-18 10:30N 52°06' E 004°16'0 0.0
2020-Jan-18 10:00N 52°06' E 004°16'0 0.0
2020-Jan-18 06:30N 52°06' E 004°16'0 0.0
2020-Jan-18 06:00N 52°06' E 004°16'0 0.0
2020-Jan-18 04:00N 52°06' E 004°16'0 0.0
2020-Jan-18 02:00N 52°06' E 004°16'0 0.0
2020-Jan-18 01:00N 52°06' E 004°16'0 0.0
2020-Jan-18 00:00N 52°06' E 004°16'0 0.0
2020-Jan-17 20:00N 52°06' E 004°16'0 0.0
2020-Jan-17 18:30N 52°06' E 004°16'0 0.0
2020-Jan-17 17:30N 52°06' E 004°16'0 0.0
2020-Jan-17 16:30N 52°06' E 004°16'0 0.0
2020-Jan-17 15:00N 52°06' E 004°16'0 0.0
2020-Jan-17 11:30N 52°06' E 004°16'0 0.0
2020-Jan-17 08:30N 52°06' E 004°16'0 0.0
2020-Jan-17 07:00N 52°06' E 004°16'0 0.0
2020-Jan-17 05:00N 52°06' E 004°16'0 0.0
2020-Jan-17 04:30N 52°06' E 004°16'0 0.0
2020-Jan-17 04:00N 52°06' E 004°16'0 0.0
2020-Jan-17 02:30N 52°06' E 004°16'0 0.0
2020-Jan-17 00:30N 52°06' E 004°16'31 4.4
2020-Jan-16 17:30N 52°35' E 004°29'510.7
2020-Jan-16 17:00N 52°41' E 004°30'19 6.2
2020-Jan-16 13:53N 52°60' E 004°36'0 0.0
2020-Jan-16 13:00N 52°60' E 004°36'0 0.1
2020-Jan-16 10:49N 52°60' E 004°36'0 0.1
2020-Jan-16 09:30N 52°60' E 004°36'7 6.6
2020-Jan-16 08:30N 52°53' E 004°38'9 2.1
2020-Jan-16 04:10N 53°00' E 004°48'0 0.0
2020-Jan-16 03:52N 53°00' E 004°48'0 0.0
2020-Jan-16 02:52N 53°00' E 004°48'0 0.0
2020-Jan-16 02:22N 53°00' E 004°48'0 0.0
2020-Jan-16 01:22N 53°00' E 004°48'0 0.0
2020-Jan-15 23:25N 53°00' E 004°48'0 0.0
2020-Jan-15 19:19N 53°00' E 004°48'0 0.0
2020-Jan-15 17:46N 53°00' E 004°48'0 0.0
2020-Jan-15 04:58N 53°00' E 004°48'0 0.0
2020-Jan-15 03:22N 53°00' E 004°48'0 0.0
2020-Jan-14 21:07N 53°00' E 004°48'0 0.0
2020-Jan-14 20:55N 53°00' E 004°48'0 0.0
2020-Jan-14 19:25N 53°00' E 004°48'0 0.0
2020-Jan-14 18:28N 53°00' E 004°48'0 0.0
2020-Jan-14 17:46N 53°00' E 004°48'0 0.0
2020-Jan-14 11:52N 53°00' E 004°48'0 0.0
2020-Jan-14 11:04N 53°00' E 004°48'0 0.0
2020-Jan-14 10:52N 53°00' E 004°48'  
Track history (hours):
 
Tides and Currents Weather Stations Pressure Air Temp Water Temp Dewpoint Dewpoint Depression Visibility Wind Speed Wind Dir Waves Ship Positions

Oceanographic research ship Arca (Netherlands)

Detailed information on ship capabilities available from University of Delaware's Ocean Information Center.

Last reported at 2020-Jan-24 03:28 UTC. Time now 2020-Jan-24 05:31 UTC.
Position N 52°06' E 004°16'.

Length 83 m; draft 5 m.

Type: Law enforcement. MMSI: 244454000.

Date/timePositionNaut miles runAvg speedWind from/ knotsBaromVisibWave heightAir tempDewpointWater temp
2020-Jan-24 03:28N 52°06' E 004°16'0 0.0
2020-Jan-24 02:28N 52°06' E 004°16'0 0.0
2020-Jan-24 00:28N 52°06' E 004°16'0 0.0
2020-Jan-23 23:28N 52°06' E 004°16'0 0.0
2020-Jan-23 21:58N 52°06' E 004°16'0 0.0
2020-Jan-23 16:28N 52°06' E 004°16'3 3.2
2020-Jan-23 15:30N 52°08' E 004°12'2 1.3
2020-Jan-23 14:00N 52°09' E 004°09'2 1.0
2020-Jan-23 12:30N 52°08' E 004°12'1811.7
2020-Jan-23 11:00N 51°59' E 003°47'1611.7
2020-Jan-23 09:37N 51°54' E 003°22'9 2.5
2020-Jan-23 05:53N 52°01' E 003°11'1 3.5
2020-Jan-23 05:30N 52°00' E 003°13'1 0.0
2020-Jan-22 08:28N 52°01' E 003°14'1 0.3
2020-Jan-22 04:00N 51°60' E 003°16'1 0.2
2020-Jan-22 00:00N 52°00' E 003°15'0 0.1
2020-Jan-21 20:30N 51°60' E 003°14'32 4.3
2020-Jan-21 13:00N 52°15' E 004°01'1510.1
2020-Jan-21 11:30N 52°25' E 004°20'1010.1
2020-Jan-21 10:30N 52°33' E 004°28'27 7.5
2020-Jan-21 06:53N 53°00' E 004°36'7 0.5
2020-Jan-20 14:45N 52°53' E 004°34'1612.7
2020-Jan-20 13:30N 52°37' E 004°29'2013.3
2020-Jan-20 12:00N 52°18' E 004°21'1211.5
2020-Jan-20 11:01N 52°08' E 004°12'3 2.0
2020-Jan-20 09:27N 52°06' E 004°16'0 0.0
2020-Jan-20 09:00N 52°06' E 004°16'0 0.0
2020-Jan-20 07:00N 52°06' E 004°16'0 0.0
2020-Jan-20 06:00N 52°06' E 004°16'0 0.0
2020-Jan-20 05:30N 52°06' E 004°16'0 0.0
2020-Jan-20 05:00N 52°06' E 004°16'0 0.0
2020-Jan-20 03:30N 52°06' E 004°16'0 0.0
2020-Jan-20 02:30N 52°06' E 004°16'0 0.0
2020-Jan-20 01:30N 52°06' E 004°16'0 0.0
2020-Jan-20 01:00N 52°06' E 004°16'0 0.0
2020-Jan-19 23:30N 52°06' E 004°16'0 0.0
2020-Jan-19 20:57N 52°06' E 004°16'0 0.0
2020-Jan-19 19:00N 52°06' E 004°16'0 0.0
2020-Jan-19 18:30N 52°06' E 004°16'0 0.0
2020-Jan-19 16:30N 52°06' E 004°16'0 0.0
2020-Jan-19 13:00N 52°06' E 004°16'0 0.0
2020-Jan-19 11:00N 52°06' E 004°16'0 0.0
2020-Jan-19 10:30N 52°06' E 004°16'0 0.0
2020-Jan-19 10:00N 52°06' E 004°16'0 0.0
2020-Jan-19 08:30N 52°06' E 004°16'0 0.0
2020-Jan-19 06:30N 52°06' E 004°16'0 0.0
2020-Jan-19 04:30N 52°06' E 004°16'0 0.0
2020-Jan-19 03:30N 52°06' E 004°16'0 0.0
2020-Jan-19 01:00N 52°06' E 004°16'0 0.0
2020-Jan-19 00:30N 52°06' E 004°16'0 0.0
2020-Jan-18 21:57N 52°06' E 004°16'0 0.0
2020-Jan-18 21:30N 52°06' E 004°16'0 0.0
2020-Jan-18 20:30N 52°06' E 004°16'0 0.0
2020-Jan-18 19:30N 52°06' E 004°16'0 0.0
2020-Jan-18 18:00N 52°06' E 004°16'0 0.0
2020-Jan-18 17:30N 52°06' E 004°16'0 0.0
2020-Jan-18 16:30N 52°06' E 004°16'0 0.0
2020-Jan-18 15:30N 52°06' E 004°16'0 0.0
2020-Jan-18 15:00N 52°06' E 004°16'0 0.0
2020-Jan-18 13:27N 52°06' E 004°16'0 0.0
2020-Jan-18 10:30N 52°06' E 004°16'0 0.0
2020-Jan-18 10:00N 52°06' E 004°16'0 0.0
2020-Jan-18 06:30N 52°06' E 004°16'0 0.0
2020-Jan-18 06:00N 52°06' E 004°16'0 0.0
2020-Jan-18 04:00N 52°06' E 004°16'0 0.0
2020-Jan-18 02:00N 52°06' E 004°16'0 0.0
2020-Jan-18 01:00N 52°06' E 004°16'0 0.0
2020-Jan-18 00:00N 52°06' E 004°16'0 0.0
2020-Jan-17 20:00N 52°06' E 004°16'0 0.0
2020-Jan-17 18:30N 52°06' E 004°16'0 0.0
2020-Jan-17 17:30N 52°06' E 004°16'0 0.0
2020-Jan-17 16:30N 52°06' E 004°16'0 0.0
2020-Jan-17 15:00N 52°06' E 004°16'0 0.0
2020-Jan-17 11:30N 52°06' E 004°16'0 0.0
2020-Jan-17 08:30N 52°06' E 004°16'0 0.0
2020-Jan-17 07:00N 52°06' E 004°16'0 0.0
2020-Jan-17 05:00N 52°06' E 004°16'0 0.0
2020-Jan-17 04:30N 52°06' E 004°16'0 0.0
2020-Jan-17 04:00N 52°06' E 004°16'0 0.0
2020-Jan-17 02:30N 52°06' E 004°16'0 0.0
2020-Jan-17 00:30N 52°06' E 004°16'31 4.4
2020-Jan-16 17:30N 52°35' E 004°29'510.7
2020-Jan-16 17:00N 52°41' E 004°30'19 6.2
2020-Jan-16 13:53N 52°60' E 004°36'0 0.0
2020-Jan-16 13:00N 52°60' E 004°36'0 0.1
2020-Jan-16 10:49N 52°60' E 004°36'0 0.1
2020-Jan-16 09:30N 52°60' E 004°36'7 6.6
2020-Jan-16 08:30N 52°53' E 004°38'9 2.1
2020-Jan-16 04:10N 53°00' E 004°48'0 0.0
2020-Jan-16 03:52N 53°00' E 004°48'0 0.0
2020-Jan-16 02:52N 53°00' E 004°48'0 0.0
2020-Jan-16 02:22N 53°00' E 004°48'0 0.0
2020-Jan-16 01:22N 53°00' E 004°48'0 0.0
2020-Jan-15 23:25N 53°00' E 004°48'0 0.0
2020-Jan-15 19:19N 53°00' E 004°48'0 0.0
2020-Jan-15 17:46N 53°00' E 004°48'0 0.0
2020-Jan-15 04:58N 53°00' E 004°48'0 0.0
2020-Jan-15 03:22N 53°00' E 004°48'0 0.0
2020-Jan-14 21:07N 53°00' E 004°48'0 0.0
2020-Jan-14 20:55N 53°00' E 004°48'0 0.0
2020-Jan-14 19:25N 53°00' E 004°48'0 0.0
2020-Jan-14 18:28N 53°00' E 004°48'0 0.0
2020-Jan-14 17:46N 53°00' E 004°48'0 0.0
2020-Jan-14 11:52N 53°00' E 004°48'0 0.0
2020-Jan-14 11:04N 53°00' E 004°48'0 0.0
2020-Jan-14 10:52N 53°00' E 004°48'  

Dump ship's entire track history